createdAt,value
2019-01-20T00:00:27.131Z,100948.62
2019-01-20T00:03:00.783Z,100950.11
2019-01-20T00:05:32.968Z,100951.90
2019-01-20T00:08:06.345Z,100942.85
2019-01-20T00:10:37.214Z,100951.56
2019-01-20T00:13:08.999Z,100946.58
2019-01-20T00:15:42.151Z,100952.36
2019-01-20T00:18:15.364Z,100950.28
2019-01-20T00:20:47.518Z,100952.77
2019-01-20T00:23:22.112Z,100950.26
2019-01-20T00:25:53.838Z,100953.23
2019-01-20T00:28:25.773Z,100950.98
2019-01-20T00:30:58.411Z,100953.38
2019-01-20T00:33:31.584Z,100956.00
2019-01-20T00:36:03.053Z,100955.23
2019-01-20T00:38:35.241Z,100951.70
2019-01-20T00:41:06.690Z,100959.94
2019-01-20T00:43:48.782Z,100954.41
2019-01-20T00:46:20.846Z,100955.78
2019-01-20T00:48:55.274Z,100955.06
2019-01-20T00:51:33.599Z,100951.80
2019-01-20T00:54:08.900Z,100957.12
2019-01-20T00:56:39.868Z,100955.05
2019-01-20T00:59:11.767Z,100955.09
2019-01-20T01:01:42.951Z,100952.86
2019-01-20T01:04:18.141Z,100955.95
2019-01-20T01:06:50.301Z,100951.70
2019-01-20T01:09:22.453Z,100950.48
2019-01-20T01:11:54.741Z,100944.93
2019-01-20T01:14:27.048Z,100948.05
2019-01-20T01:17:00.037Z,100951.93
2019-01-20T01:19:32.198Z,100955.48
2019-01-20T01:22:02.933Z,100950.64
2019-01-20T01:24:35.792Z,100946.64
2019-01-20T01:27:07.244Z,100952.75
2019-01-20T01:29:40.850Z,100957.33
2019-01-20T01:32:11.889Z,100954.21
2019-01-20T01:34:44.127Z,100950.47
2019-01-20T01:37:15.277Z,100968.78
2019-01-20T01:39:50.518Z,100968.01
2019-01-20T01:42:28.539Z,100962.84
2019-01-20T01:45:00.926Z,100962.72
2019-01-20T01:47:31.561Z,100957.88
2019-01-20T01:50:05.249Z,100958.19
2019-01-20T01:52:39.917Z,100955.95
2019-01-20T01:55:12.509Z,100964.44
2019-01-20T01:57:45.734Z,100966.59
2019-01-20T02:00:22.551Z,100968.06
2019-01-20T02:02:56.727Z,100965.45
2019-01-20T02:05:30.047Z,100964.36
2019-01-20T02:08:01.805Z,100960.34
2019-01-20T02:10:33.867Z,100965.00
2019-01-20T02:13:04.944Z,100974.40
2019-01-20T02:15:37.257Z,100973.77
2019-01-20T02:18:09.058Z,100964.36
2019-01-20T02:20:40.266Z,100965.52
2019-01-20T02:23:11.516Z,100968.38
2019-01-20T02:25:42.990Z,100971.81
2019-01-20T02:28:13.624Z,100968.73
2019-01-20T02:30:46.025Z,100970.14
2019-01-20T02:33:18.780Z,100968.03
2019-01-20T02:35:51.785Z,100978.47
2019-01-20T02:38:22.649Z,100971.19
2019-01-20T02:40:54.285Z,100967.92
2019-01-20T02:43:25.000Z,100968.33
2019-01-20T02:45:56.064Z,100976.34
2019-01-20T02:48:26.430Z,100975.10
2019-01-20T02:50:58.649Z,100970.28
2019-01-20T02:53:29.670Z,100971.84
2019-01-20T02:56:01.121Z,100967.98
2019-01-20T02:58:34.076Z,100973.08
2019-01-20T03:01:08.632Z,100973.77
2019-01-20T03:03:40.049Z,100967.27
2019-01-20T03:06:12.306Z,100974.08
2019-01-20T03:08:43.903Z,100969.12
2019-01-20T03:11:16.711Z,100972.09
2019-01-20T03:13:48.385Z,100973.23
2019-01-20T03:16:21.851Z,100972.89
2019-01-20T03:18:54.428Z,100977.10
2019-01-20T03:21:27.086Z,100970.74
2019-01-20T03:24:00.134Z,100965.30
2019-01-20T03:26:31.296Z,100968.38
2019-01-20T03:29:06.241Z,100963.95
2019-01-20T03:31:38.179Z,100972.10
2019-01-20T03:34:09.863Z,100975.29
2019-01-20T03:36:43.813Z,100966.28
2019-01-20T03:39:15.115Z,100965.09
2019-01-20T03:41:48.657Z,100964.23
2019-01-20T03:44:21.875Z,100968.68
2019-01-20T03:46:53.588Z,100962.55
2019-01-20T03:49:24.496Z,100961.66
2019-01-20T03:51:58.517Z,100962.92
2019-01-20T03:54:31.477Z,100956.17
2019-01-20T03:57:03.500Z,100961.50
2019-01-20T03:59:34.759Z,100959.94
2019-01-20T04:02:06.552Z,100962.80
2019-01-20T04:04:38.719Z,100959.02
2019-01-20T04:07:11.295Z,100949.58
2019-01-20T04:09:45.216Z,100954.01
2019-01-20T04:12:20.742Z,100953.55
2019-01-20T04:14:49.769Z,100950.70
2019-01-20T04:17:29.005Z,100958.48
2019-01-20T04:20:10.577Z,100959.02
2019-01-20T04:22:44.465Z,100959.17
2019-01-20T04:25:18.412Z,100952.91
2019-01-20T04:27:49.905Z,100958.84
2019-01-20T04:30:20.887Z,100955.17
2019-01-20T04:32:52.831Z,100955.67
2019-01-20T04:35:23.097Z,100952.91
2019-01-20T04:37:55.091Z,100954.64
2019-01-20T04:40:29.054Z,100948.75
2019-01-20T04:43:00.694Z,100943.53
2019-01-20T04:45:31.363Z,100956.65
2019-01-20T04:48:01.752Z,100965.18
2019-01-20T04:50:33.001Z,100963.36
2019-01-20T04:53:05.101Z,100958.86
2019-01-20T04:55:36.659Z,100960.38
2019-01-20T04:58:08.109Z,100968.01
2019-01-20T05:00:39.749Z,100963.71
2019-01-20T05:03:13.765Z,100962.47
2019-01-20T05:05:50.171Z,100968.77
2019-01-20T05:08:24.064Z,100962.28
2019-01-20T05:10:55.478Z,100960.08
2019-01-20T05:13:27.687Z,100966.81
2019-01-20T05:16:00.805Z,100966.61
2019-01-20T05:18:31.573Z,100964.75
2019-01-20T05:21:07.161Z,100971.36
2019-01-20T05:23:40.700Z,100971.95
2019-01-20T05:26:14.163Z,100969.55
2019-01-20T05:28:47.008Z,100968.46
2019-01-20T05:31:19.418Z,100976.62
2019-01-20T05:33:51.916Z,100975.36
2019-01-20T05:36:25.630Z,100972.88
2019-01-20T05:38:58.042Z,100973.66
2019-01-20T05:41:30.590Z,100973.74
2019-01-20T05:44:02.580Z,100968.38
2019-01-20T05:46:33.666Z,100973.58
2019-01-20T05:49:05.176Z,100974.12
2019-01-20T05:51:36.095Z,100964.62
2019-01-20T05:54:10.270Z,100977.52
2019-01-20T05:56:43.833Z,100968.23
2019-01-20T05:59:17.991Z,100975.71
2019-01-20T06:01:50.511Z,100978.32
2019-01-20T06:04:22.563Z,100978.20
2019-01-20T06:06:53.810Z,100985.19
2019-01-20T06:09:26.444Z,100992.23
2019-01-20T06:11:59.380Z,100992.53
2019-01-20T06:14:31.149Z,100996.81
2019-01-20T06:17:02.147Z,100997.55
2019-01-20T06:19:32.872Z,101005.24
2019-01-20T06:22:05.120Z,101007.63
2019-01-20T06:24:38.253Z,101016.66
2019-01-20T06:27:09.554Z,101010.25
2019-01-20T06:29:41.031Z,101013.67
2019-01-20T06:32:12.255Z,101018.83
2019-01-20T06:34:45.676Z,101023.83
2019-01-20T06:37:20.119Z,101029.83
2019-01-20T06:39:53.751Z,101023.25
2019-01-20T06:42:25.274Z,101032.98
2019-01-20T06:44:56.540Z,101030.48
2019-01-20T06:47:27.562Z,101033.20
2019-01-20T06:49:58.952Z,101033.37
2019-01-20T06:52:30.266Z,101040.75
2019-01-20T06:55:04.896Z,101044.83
2019-01-20T06:57:37.476Z,101041.92
2019-01-20T07:00:12.710Z,101047.39
2019-01-20T07:02:43.076Z,101047.23
2019-01-20T07:05:14.821Z,101049.16
2019-01-20T07:07:46.742Z,101060.16
2019-01-20T07:10:21.489Z,101059.30
2019-01-20T07:12:55.185Z,101066.58
2019-01-20T07:15:29.538Z,101063.32
2019-01-20T07:18:03.669Z,101070.74
2019-01-20T07:20:35.118Z,101072.92
2019-01-20T07:23:08.666Z,101073.95
2019-01-20T07:25:45.567Z,101073.95
2019-01-20T07:28:18.845Z,101081.20
2019-01-20T07:30:50.560Z,101079.89
2019-01-20T07:33:22.699Z,101088.72
2019-01-20T07:35:57.731Z,101085.88
2019-01-20T07:38:29.977Z,101092.73
2019-01-20T07:41:01.551Z,101093.62
2019-01-20T07:43:34.537Z,101096.89
2019-01-20T07:46:05.955Z,101094.27
2019-01-20T07:48:38.529Z,101099.84
2019-01-20T07:51:09.619Z,101108.02
2019-01-20T07:53:41.435Z,101110.05
2019-01-20T07:56:16.322Z,101109.59
2019-01-20T07:58:52.387Z,101111.09
2019-01-20T08:01:24.989Z,101113.83
2019-01-20T08:03:56.666Z,101113.23
2019-01-20T08:06:28.575Z,101122.92
2019-01-20T08:08:59.878Z,101130.66
2019-01-20T08:11:33.245Z,101126.93
2019-01-20T08:14:05.450Z,101127.87
2019-01-20T08:16:37.241Z,101126.08
2019-01-20T08:19:08.904Z,101129.31
2019-01-20T08:21:41.626Z,101131.28
2019-01-20T08:24:15.082Z,101131.71
2019-01-20T08:26:46.228Z,101135.82
2019-01-20T08:29:17.983Z,101137.64
2019-01-20T08:31:49.579Z,101137.70
2019-01-20T08:34:22.017Z,101143.97
2019-01-20T08:36:53.841Z,101149.39
2019-01-20T08:39:24.818Z,101156.42
2019-01-20T08:41:58.862Z,101159.75
2019-01-20T08:44:36.514Z,101168.50
2019-01-20T08:47:44.950Z,101162.92
2019-01-20T08:50:19.737Z,101169.84
2019-01-20T08:52:52.176Z,101173.88
2019-01-20T08:55:24.955Z,101175.89
2019-01-20T08:57:59.144Z,101178.09
2019-01-20T09:00:30.432Z,101176.04
2019-01-20T09:03:04.086Z,101176.29
2019-01-20T09:05:40.031Z,101174.39
2019-01-20T09:08:12.556Z,101173.67
2019-01-20T09:10:48.847Z,101178.31
2019-01-20T09:13:21.584Z,101187.62
2019-01-20T09:15:53.116Z,101189.33
2019-01-20T09:18:25.216Z,101194.03
2019-01-20T09:20:55.889Z,101196.50
2019-01-20T09:23:27.711Z,101190.48
2019-01-20T09:26:02.093Z,101203.81
2019-01-20T09:28:33.896Z,101199.36
2019-01-20T09:31:07.801Z,101208.58
2019-01-20T09:33:40.588Z,101207.72
2019-01-20T09:36:14.496Z,101210.41
2019-01-20T09:38:49.829Z,101210.75
2019-01-20T09:41:21.843Z,101205.56
2019-01-20T09:44:32.715Z,101213.98
2019-01-20T09:47:04.544Z,101215.36
2019-01-20T09:49:40.971Z,101219.44
2019-01-20T09:52:14.352Z,101218.57
2019-01-20T09:54:44.759Z,101220.81
2019-01-20T09:57:16.869Z,101218.01
2019-01-20T09:59:48.008Z,101226.48
2019-01-20T10:02:18.591Z,101228.56
2019-01-20T10:04:50.491Z,101225.20
2019-01-20T10:07:25.446Z,101227.77
2019-01-20T10:09:55.770Z,101225.80
2019-01-20T10:12:26.661Z,101233.90
2019-01-20T10:14:59.409Z,101240.13
2019-01-20T10:17:31.191Z,101241.81
2019-01-20T10:20:03.092Z,101243.09
2019-01-20T10:22:34.500Z,101241.83
2019-01-20T10:25:06.939Z,101241.31
2019-01-20T10:27:39.716Z,101239.61
2019-01-20T10:30:18.700Z,101238.47
2019-01-20T10:32:50.923Z,101240.05
2019-01-20T10:35:28.586Z,101233.70
2019-01-20T10:38:01.918Z,101242.72
2019-01-20T10:40:36.114Z,101240.41
2019-01-20T10:43:10.058Z,101242.20
2019-01-20T10:45:41.654Z,101248.44
2019-01-20T10:48:15.154Z,101250.59
2019-01-20T10:50:45.898Z,101245.30
2019-01-20T10:53:20.438Z,101252.91
2019-01-20T10:55:51.292Z,101258.68
2019-01-20T10:58:30.876Z,101254.75
2019-01-20T11:01:01.860Z,101256.09
2019-01-20T11:03:34.158Z,101255.64
2019-01-20T11:06:08.443Z,101254.06
2019-01-20T11:08:40.068Z,101251.64
2019-01-20T11:11:15.253Z,101255.78
2019-01-20T11:13:54.884Z,101246.78
2019-01-20T11:16:28.316Z,101249.50
2019-01-20T11:18:59.276Z,101249.09
2019-01-20T11:21:30.642Z,101248.49
2019-01-20T11:24:01.285Z,101255.21
2019-01-20T11:26:32.259Z,101261.41
2019-01-20T11:29:04.416Z,101264.31
2019-01-20T11:31:35.540Z,101252.44
2019-01-20T11:34:08.528Z,101259.22
2019-01-20T11:36:39.604Z,101251.66
2019-01-20T11:39:11.328Z,101261.85
2019-01-20T11:41:44.341Z,101263.03
2019-01-20T11:44:16.990Z,101259.70
2019-01-20T11:46:51.332Z,101257.90
2019-01-20T11:49:24.662Z,101249.16
2019-01-20T11:51:56.098Z,101254.72
2019-01-20T11:54:28.430Z,101253.90
2019-01-20T11:57:01.199Z,101254.67
2019-01-20T11:59:34.406Z,101253.80
2019-01-20T12:02:06.167Z,101250.75
2019-01-20T12:04:37.618Z,101251.55
2019-01-20T12:07:10.310Z,101253.77
2019-01-20T12:09:43.201Z,101249.34
2019-01-20T12:12:16.542Z,101248.47
2019-01-20T12:14:48.695Z,101249.84
2019-01-20T12:17:21.562Z,101248.56
2019-01-20T12:19:54.366Z,101248.11
2019-01-20T12:22:27.514Z,101246.78
2019-01-20T12:24:59.069Z,101246.39
2019-01-20T12:27:30.932Z,101245.45
2019-01-20T12:30:04.230Z,101240.30
2019-01-20T12:32:37.999Z,101234.78
2019-01-20T12:35:08.960Z,101237.51
2019-01-20T12:37:40.947Z,101236.91
2019-01-20T12:40:21.693Z,101235.58
2019-01-20T12:43:00.019Z,101236.56
2019-01-20T12:45:33.655Z,101232.70
2019-01-20T12:48:12.299Z,101239.34
2019-01-20T12:50:46.160Z,101232.91
2019-01-20T12:53:18.021Z,101235.38
2019-01-20T12:55:49.101Z,101238.86
2019-01-20T12:58:22.776Z,101234.97
2019-01-20T13:00:56.149Z,101236.20
2019-01-20T13:03:34.379Z,101236.80
2019-01-20T13:06:05.810Z,101243.56
2019-01-20T13:08:37.348Z,101242.80
2019-01-20T13:11:08.617Z,101239.17
2019-01-20T13:13:39.267Z,101239.81
2019-01-20T13:16:09.656Z,101245.67
2019-01-20T13:18:42.330Z,101240.72
2019-01-20T13:21:12.686Z,101237.08
2019-01-20T13:23:45.607Z,101239.74
2019-01-20T13:26:15.908Z,101241.48
2019-01-20T13:28:47.374Z,101240.67
2019-01-20T13:31:18.920Z,101233.64
2019-01-20T13:33:53.655Z,101233.56
2019-01-20T13:36:25.670Z,101238.54
2019-01-20T13:38:58.208Z,101234.00
2019-01-20T13:41:35.475Z,101234.78
2019-01-20T13:44:07.239Z,101233.42
2019-01-20T13:46:38.791Z,101237.69
2019-01-20T13:49:11.472Z,101241.31
2019-01-20T13:51:45.573Z,101240.18
2019-01-20T13:54:17.146Z,101237.08
2019-01-20T13:56:48.867Z,101242.26
2019-01-20T13:59:20.114Z,101242.83
2019-01-20T14:01:50.441Z,101235.22
2019-01-20T14:04:23.118Z,101236.31
2019-01-20T14:06:55.430Z,101243.34
2019-01-20T14:09:31.409Z,101237.18
2019-01-20T14:12:04.399Z,101245.47
2019-01-20T14:14:35.475Z,101244.55
2019-01-20T14:17:07.752Z,101244.58
2019-01-20T14:19:41.340Z,101249.00
2019-01-20T14:22:13.172Z,101247.72
2019-01-20T14:24:44.565Z,101245.48
2019-01-20T14:27:16.425Z,101239.36
2019-01-20T14:29:48.029Z,101241.10
2019-01-20T14:32:20.191Z,101248.62
2019-01-20T14:34:54.514Z,101246.86
2019-01-20T14:37:28.013Z,101245.55
2019-01-20T14:40:00.781Z,101242.30
2019-01-20T14:42:35.447Z,101244.19
2019-01-20T14:45:09.560Z,101247.30
2019-01-20T14:47:45.326Z,101245.98
2019-01-20T14:50:20.434Z,101248.17
2019-01-20T14:52:54.510Z,101246.81
2019-01-20T14:55:33.503Z,101251.19
2019-01-20T14:58:05.848Z,101253.44
2019-01-20T15:00:39.921Z,101256.95
2019-01-20T15:03:12.423Z,101259.59
2019-01-20T15:05:46.022Z,101263.53
2019-01-20T15:08:20.624Z,101262.22
2019-01-20T15:10:52.368Z,101265.73
2019-01-20T15:13:37.581Z,101268.33
2019-01-20T15:16:10.704Z,101267.91
2019-01-20T15:18:51.488Z,101270.11
2019-01-20T15:21:26.729Z,101269.20
2019-01-20T15:24:00.861Z,101268.75
2019-01-20T15:26:33.628Z,101277.52
2019-01-20T15:29:04.652Z,101280.18
2019-01-20T15:31:35.770Z,101280.58
2019-01-20T15:34:08.839Z,101284.06
2019-01-20T15:36:41.545Z,101289.41
2019-01-20T15:39:14.461Z,101291.59
2019-01-20T15:41:45.697Z,101293.77
2019-01-20T15:44:17.439Z,101294.18
2019-01-20T15:46:49.832Z,101293.30
2019-01-20T15:49:21.176Z,101296.81
2019-01-20T15:51:54.542Z,101295.91
2019-01-20T15:54:26.324Z,101295.48
2019-01-20T15:56:58.043Z,101299.40
2019-01-20T15:59:29.794Z,101302.48
2019-01-20T16:02:02.157Z,101302.47
2019-01-20T16:04:33.916Z,101304.69
2019-01-20T16:07:09.453Z,101309.52
2019-01-20T16:09:40.230Z,101300.28
2019-01-20T16:12:12.354Z,101310.82
2019-01-20T16:14:43.996Z,101316.57
2019-01-20T16:17:15.868Z,101316.98
2019-01-20T16:19:48.102Z,101318.33
2019-01-20T16:22:21.373Z,101333.70
2019-01-20T16:24:53.128Z,101333.70
2019-01-20T16:27:28.953Z,101338.53
2019-01-20T16:30:02.449Z,101342.50
2019-01-20T16:32:34.097Z,101333.28
2019-01-20T16:35:06.891Z,101344.70
2019-01-20T16:37:40.055Z,101343.39
2019-01-20T16:40:14.289Z,101345.14
2019-01-20T16:42:45.728Z,101349.97
2019-01-20T16:45:23.370Z,101351.27
2019-01-20T16:47:55.489Z,101358.75
2019-01-20T16:50:29.400Z,101360.04
2019-01-20T16:53:04.828Z,101363.13
2019-01-20T16:55:36.531Z,101373.22
2019-01-20T16:58:07.883Z,101369.70
2019-01-20T17:00:42.715Z,101371.87
2019-01-20T17:03:15.968Z,101380.67
2019-01-20T17:05:46.279Z,101381.09
2019-01-20T17:08:19.091Z,101379.78
2019-01-20T17:10:51.341Z,101378.88
2019-01-20T17:13:24.796Z,101381.52
2019-01-20T17:15:56.743Z,101387.62
2019-01-20T17:18:29.852Z,101385.45
2019-01-20T17:21:02.962Z,101384.13
2019-01-20T17:23:34.539Z,101383.69
2019-01-20T17:26:08.205Z,101384.56
2019-01-20T17:28:41.484Z,101385.01
2019-01-20T17:31:13.257Z,101377.97
2019-01-20T17:33:46.928Z,101384.55
2019-01-20T17:36:20.649Z,101387.61
2019-01-20T17:38:53.332Z,101389.36
2019-01-20T17:41:25.500Z,101385.83
2019-01-20T17:43:56.985Z,101393.30
2019-01-20T17:46:29.496Z,101398.98
2019-01-20T17:49:01.301Z,101398.98
2019-01-20T17:51:39.299Z,101402.03
2019-01-20T17:54:11.882Z,101402.48
2019-01-20T17:56:45.583Z,101404.20
2019-01-20T17:59:17.959Z,101408.12
2019-01-20T18:01:50.240Z,101412.52
2019-01-20T18:04:21.355Z,101410.75
2019-01-20T18:06:53.860Z,101418.23
2019-01-20T18:09:27.673Z,101419.09
2019-01-20T18:11:59.178Z,101421.72
2019-01-20T18:14:30.442Z,101429.20
2019-01-20T18:17:02.235Z,101430.48
2019-01-20T18:19:32.986Z,101430.04
2019-01-20T18:22:09.318Z,101433.53
2019-01-20T18:24:52.260Z,101437.05
2019-01-20T18:27:27.325Z,101434.38
2019-01-20T18:29:59.044Z,101438.78
2019-01-20T18:32:31.377Z,101444.04
2019-01-20T18:35:03.518Z,101451.08
2019-01-20T18:37:37.149Z,101446.23
2019-01-20T18:40:13.416Z,101456.30
2019-01-20T18:42:45.531Z,101452.36
2019-01-20T18:45:20.966Z,101460.66
2019-01-20T18:47:52.926Z,101460.23
2019-01-20T18:50:28.850Z,101459.77
2019-01-20T18:53:02.697Z,101463.28
2019-01-20T18:55:35.318Z,101464.58
2019-01-20T18:58:08.874Z,101458.45
2019-01-20T19:00:45.985Z,101462.81
2019-01-20T19:03:20.496Z,101464.13
2019-01-20T19:06:03.100Z,101462.83
2019-01-20T19:08:33.963Z,101470.21
2019-01-20T19:11:08.834Z,101477.20
2019-01-20T19:13:41.161Z,101474.94
2019-01-20T19:16:14.903Z,101481.99
2019-01-20T19:18:46.901Z,101483.28
2019-01-20T19:21:17.876Z,101486.84
2019-01-20T19:23:51.037Z,101489.02
2019-01-20T19:26:24.761Z,101487.70
2019-01-20T19:29:02.808Z,101492.05
2019-01-20T19:31:29.562Z,101498.60
2019-01-20T19:34:02.492Z,101500.37
2019-01-20T19:36:38.023Z,101499.91
2019-01-20T19:39:11.537Z,101507.81
2019-01-20T19:41:43.737Z,101503.38
2019-01-20T19:44:16.704Z,101511.69
2019-01-20T19:46:52.693Z,101512.98
2019-01-20T19:49:23.683Z,101514.30
2019-01-20T19:51:55.990Z,101523.47
2019-01-20T19:54:29.355Z,101523.00
2019-01-20T19:57:06.389Z,101525.64
2019-01-20T19:59:38.402Z,101532.22
2019-01-20T20:02:10.279Z,101535.23
2019-01-20T20:04:42.307Z,101531.30
2019-01-20T20:07:14.172Z,101533.06
2019-01-20T20:09:45.964Z,101541.31
2019-01-20T20:12:18.863Z,101538.25
2019-01-20T20:14:53.253Z,101539.45
2019-01-20T20:17:23.943Z,101536.34
2019-01-20T20:19:54.660Z,101546.47
2019-01-20T20:22:26.408Z,101553.46
2019-01-20T20:24:57.555Z,101559.98
2019-01-20T20:27:30.313Z,101557.80
2019-01-20T20:30:02.586Z,101561.78
2019-01-20T20:32:34.677Z,101559.19
2019-01-20T20:35:07.391Z,101566.95
2019-01-20T20:37:39.626Z,101561.75
2019-01-20T20:40:15.846Z,101570.02
2019-01-20T20:42:50.169Z,101567.84
2019-01-20T20:45:26.205Z,101573.94
2019-01-20T20:48:03.230Z,101575.70
2019-01-20T20:50:34.634Z,101573.48
2019-01-20T20:53:07.402Z,101575.70
2019-01-20T20:55:43.661Z,101583.08
2019-01-20T20:58:29.006Z,101587.97
2019-01-20T21:01:04.431Z,101590.55
2019-01-20T21:03:40.105Z,101599.28
2019-01-20T21:06:10.855Z,101597.57
2019-01-20T21:08:41.675Z,101602.83
2019-01-20T21:11:13.042Z,101600.17
2019-01-20T21:13:44.667Z,101600.17
2019-01-20T21:16:17.397Z,101608.45
2019-01-20T21:18:49.537Z,101605.20
2019-01-20T21:21:20.790Z,101607.42
2019-01-20T21:23:52.654Z,101608.20
2019-01-20T21:26:26.246Z,101611.86
2019-01-20T21:28:57.982Z,101614.20
2019-01-20T21:31:28.621Z,101622.00
2019-01-20T21:33:59.876Z,101621.57
2019-01-20T21:36:33.076Z,101625.64
2019-01-20T21:39:04.018Z,101618.83
2019-01-20T21:41:39.140Z,101626.19
2019-01-20T21:44:12.064Z,101627.19
2019-01-20T21:46:45.544Z,101629.81
2019-01-20T21:49:17.309Z,101630.12
2019-01-20T21:51:49.092Z,101633.08
2019-01-20T21:54:21.477Z,101640.09
2019-01-20T21:56:53.656Z,101641.82
2019-01-20T21:59:26.918Z,101646.95
2019-01-20T22:01:58.707Z,101653.17
2019-01-20T22:04:32.570Z,101654.24
2019-01-20T22:07:05.333Z,101659.67
2019-01-20T22:09:39.410Z,101665.06
2019-01-20T22:12:12.177Z,101664.98
2019-01-20T22:14:44.908Z,101677.29
2019-01-20T22:17:17.128Z,101681.84
2019-01-20T22:19:48.783Z,101680.67
2019-01-20T22:22:21.357Z,101686.14
2019-01-20T22:24:52.871Z,101687.84
2019-01-20T22:27:25.795Z,101687.50
2019-01-20T22:29:58.199Z,101688.23
2019-01-20T22:32:29.746Z,101688.00
2019-01-20T22:35:02.119Z,101690.27
2019-01-20T22:37:34.337Z,101688.58
2019-01-20T22:40:08.390Z,101689.58
2019-01-20T22:42:41.278Z,101690.59
2019-01-20T22:45:16.134Z,101689.81
2019-01-20T22:47:49.307Z,101690.89
2019-01-20T22:50:21.876Z,101704.58
2019-01-20T22:52:56.350Z,101705.42
2019-01-20T22:55:30.314Z,101700.29
2019-01-20T22:58:03.304Z,101698.09
2019-01-20T23:00:53.100Z,101707.93
2019-01-20T23:03:25.051Z,101710.22
2019-01-20T23:06:00.254Z,101712.96
2019-01-20T23:08:32.458Z,101711.37
2019-01-20T23:11:04.592Z,101717.74
2019-01-20T23:13:36.512Z,101716.14
2019-01-20T23:16:10.260Z,101723.06
2019-01-20T23:18:42.079Z,101718.10
2019-01-20T23:21:13.528Z,101722.89
2019-01-20T23:23:47.625Z,101724.37
2019-01-20T23:26:19.298Z,101725.59
2019-01-20T23:28:50.395Z,101723.56
2019-01-20T23:31:25.578Z,101717.19
2019-01-20T23:33:57.631Z,101722.39
2019-01-20T23:36:30.412Z,101719.75
2019-01-20T23:39:03.099Z,101717.84
2019-01-20T23:41:35.157Z,101723.65
2019-01-20T23:44:08.490Z,101722.97
2019-01-20T23:46:41.849Z,101719.60
2019-01-20T23:49:14.555Z,101718.71
2019-01-20T23:51:47.636Z,101719.54
2019-01-20T23:54:20.115Z,101722.11
2019-01-20T23:56:52.949Z,101723.11
2019-01-20T23:59:25.566Z,101719.38
